EVRA/RIX METAR and TAF weather

Enter ICAO airport designator
Station Type Date Time Source
EVRA METAR 2021/08/04 17:20 UTC NOAA

EVRA 041720Z 02006KT CAVOK 19/12 Q1014 NOSIG


Station Type Date Time Source
EVRA Decoded METAR 2021/08/04 17:20 UTC NOAA

Riga International Airport, Latvia (EVRA) 56-55N 023-58E
Aug 04, 2021 - 01:20 PM EDT / 2021.08.04 1720 UTC
Wind: from the NNE (020 degrees) at 7 MPH (6 KT):0
Visibility: greater than 7 mile(s):0
Temperature: 66 F (19 C)
Dew Point: 53 F (12 C)
Relative Humidity: 63%
Pressure (altimeter): 29.94 in. Hg (1014 hPa)
ob: EVRA 041720Z 02006KT CAVOK 19/12 Q1014 NOSIG
cycle: 17

Station Type Date Time Source
EVRA TAF 2021/08/04 18:06 UTC NOAA

TAF TAF EVRA 041705Z 0418/0518 03005KT 9999 SCT045
TEMPO 0509/0518 SCT030CB

Example: see airport list